Allentown, Pennsylvania
Current Conditions -  °F | °C
As of 4:15 PM on Friday 24 Oct 2014 (Local Time) from KXLL Reporting Station
Clear Clear  
Wind Chill: 20°   Ceiling: Unl
Heat Index: 20°   Visibility: 10mi
Dew Point:   Wind: 13mph
Humidity: 35%   Direction: 340°NNW
Pressure: 29.82"   Gusts: 21mph
Location:  40.6°N, 75.47°W
Report Text: KXLL 242015Z AUTO 34011G18KT 10SM CLR 20/04 A2982 RMK AO2
Loading
Personal Weather Stations






























Interactive Weather Map New forecast layout! Learn more

10-Day Weather Forecast

Advertisements
Track Severe Weather on mobile